Time;durP1;ratioP1;P1;durP2;ratioP2;P2;SDS_P1;SDS_P2;PMS_P1;PMS_P2;Temp;Humidity;BMP_temperature;BMP_pressure;BME280_temperature;BME280_humidity;BME280_pressure;Samples;Min_cycle;Max_cycle;Signal;HPM_P1;HPM_P2
2023/05/27 00:00:11;;;;;;;24.45;4.97;;;12.40;99.90;;;;;;4183010;28;20182;-87
2023/05/27 00:02:11;;;;;;;20.42;4.30;;;12.30;99.90;;;;;;4166367;28;20565;-87
2023/05/27 00:04:12;;;;;;;24.77;4.32;;;12.30;99.90;;;;;;4166481;28;20180;-92
2023/05/27 00:06:13;;;;;;;30.67;5.03;;;12.30;99.90;;;;;;4166211;28;20553;-92
2023/05/27 00:08:13;;;;;;;27.90;5.32;;;12.20;99.90;;;;;;4166314;28;20191;-87
2023/05/27 00:10:14;;;;;;;25.35;4.55;;;12.20;99.90;;;;;;4166436;28;20662;-92
2023/05/27 00:12:15;;;;;;;26.10;5.10;;;12.20;99.90;;;;;;4166105;28;20598;-94
2023/05/27 00:14:17;;;;;;;19.77;4.73;;;12.00;99.90;;;;;;4149802;28;20263;-93
2023/05/27 00:16:19;;;;;;;26.30;4.90;;;12.00;99.90;;;;;;4166154;28;20206;-92
2023/05/27 00:18:21;;;;;;;28.02;5.40;;;11.90;99.90;;;;;;4149900;28;20274;-89
2023/05/27 00:20:22;;;;;;;26.43;4.73;;;11.90;99.90;;;;;;4166283;28;20244;-87
2023/05/27 00:22:23;;;;;;;27.10;4.70;;;11.90;99.90;;;;;;4182422;28;20168;-86
2023/05/27 00:24:23;;;;;;;23.37;4.47;;;11.80;99.90;;;;;;4166175;28;20255;-87
2023/05/27 00:26:24;;;;;;;29.33;5.07;;;11.80;99.90;;;;;;4182378;28;20226;-87
2023/05/27 00:28:28;;;;;;;32.97;5.57;;;11.80;99.90;;;;;;4149977;28;20195;-92
2023/05/27 00:30:30;;;;;;;30.20;4.90;;;11.70;99.90;;;;;;4165790;28;20629;-93
2023/05/27 00:32:30;;;;;;;27.83;4.77;;;11.70;99.90;;;;;;4149440;28;20211;-87
2023/05/27 00:34:33;;;;;;;27.88;4.93;;;11.60;99.90;;;;;;4165601;28;20235;-91
2023/05/27 00:36:35;;;;;;;26.10;4.50;;;11.60;99.90;;;;;;4182140;28;20199;-94
2023/05/27 00:38:36;;;;;;;24.17;4.70;;;11.50;99.90;;;;;;4165624;28;20268;-86
2023/05/27 00:40:39;;;;;;;26.80;4.43;;;11.50;99.90;;;;;;4165902;28;20659;-86
2023/05/27 00:42:40;;;;;;;20.50;5.20;;;11.50;99.90;;;;;;4165854;28;20173;-86
2023/05/27 00:44:41;;;;;;;23.55;5.00;;;11.50;99.90;;;;;;4182272;28;20293;-86
2023/05/27 00:46:42;;;;;;;22.80;5.03;;;11.50;99.90;;;;;;4149195;28;20196;-87
2023/05/27 00:48:43;;;;;;;22.00;4.45;;;11.50;99.90;;;;;;4165808;28;20176;-87
2023/05/27 00:50:43;;;;;;;23.73;5.27;;;11.50;99.90;;;;;;4165696;28;20316;-89
2023/05/27 00:52:44;;;;;;;24.10;4.63;;;11.50;99.90;;;;;;4165604;28;20262;-94
2023/05/27 00:54:45;;;;;;;28.33;5.47;;;11.50;99.90;;;;;;4165621;28;20243;-87
2023/05/27 00:56:46;;;;;;;28.03;5.50;;;11.40;99.90;;;;;;4165549;28;20680;-86
2023/05/27 00:58:47;;;;;;;31.27;5.33;;;11.40;99.90;;;;;;4165808;28;20168;-86
2023/05/27 01:00:48;;;;;;;24.10;5.37;;;11.40;99.90;;;;;;4165493;28;20735;-87
2023/05/27 01:02:50;;;;;;;19.83;4.37;;;11.40;99.90;;;;;;4166469;28;20164;-86
2023/05/27 01:04:51;;;;;;;31.77;5.13;;;11.40;99.90;;;;;;4165499;28;20221;-87
2023/05/27 01:07:27;;;;;;;24.17;4.87;;;11.40;99.90;;;;;;4149120;28;20203;-87
2023/05/27 01:09:38;;;;;;;24.47;4.80;;;11.40;99.90;;;;;;4165309;28;20330;-91
2023/05/27 01:12:03;;;;;;;14.10;3.80;;;11.40;99.90;;;;;;4165573;28;20568;-87
2023/05/27 01:14:10;;;;;;;28.43;5.17;;;11.30;99.90;;;;;;4119209;28;20184;-93
2023/05/27 01:16:13;;;;;;;20.47;4.27;;;11.30;99.90;;;;;;4165188;28;20277;-91
2023/05/27 01:18:18;;;;;;;30.30;5.07;;;11.30;99.90;;;;;;4148687;28;20180;-87
2023/05/27 01:20:20;;;;;;;21.93;5.40;;;11.30;99.90;;;;;;4165287;28;20178;-93
2023/05/27 01:22:27;;;;;;;22.77;4.77;;;11.30;99.90;;;;;;4181687;28;20171;-89
2023/05/27 01:24:28;;;;;;;24.27;4.60;;;11.30;99.90;;;;;;4164510;28;20179;-91
2023/05/27 01:26:29;;;;;;;20.07;5.00;;;11.40;99.90;;;;;;4148532;28;20201;-87
2023/05/27 01:28:30;;;;;;;26.80;5.00;;;11.40;99.90;;;;;;4148638;28;20256;-92
2023/05/27 01:30:31;;;;;;;22.43;4.73;;;11.40;99.90;;;;;;4148574;28;20681;-86
2023/05/27 01:33:12;;;;;;;24.27;4.70;;;11.40;99.90;;;;;;4148741;28;20168;-86
2023/05/27 01:35:35;;;;;;;17.20;4.60;;;11.30;99.90;;;;;;4164804;28;20680;-89
2023/05/27 01:37:40;;;;;;;20.93;4.57;;;11.20;99.90;;;;;;4148709;28;20654;-87
2023/05/27 01:39:42;;;;;;;31.90;5.30;;;11.20;99.90;;;;;;4148699;28;20185;-87
2023/05/27 01:41:46;;;;;;;30.63;6.20;;;11.00;99.90;;;;;;4148768;28;20173;-92
2023/05/27 01:43:49;;;;;;;27.93;6.57;;;11.00;99.90;;;;;;4148587;28;20177;-92
2023/05/27 01:45:50;;;;;;;25.13;5.53;;;10.90;99.90;;;;;;4164882;28;20191;-87
2023/05/27 01:47:52;;;;;;;21.87;4.70;;;10.90;99.90;;;;;;4148404;28;20181;-87
2023/05/27 01:49:52;;;;;;;23.97;4.67;;;10.90;99.90;;;;;;4164877;28;20168;-91
2023/05/27 01:51:53;;;;;;;24.03;5.03;;;10.90;99.90;;;;;;4181303;28;20171;-87
2023/05/27 01:53:54;;;;;;;27.07;5.30;;;10.80;99.90;;;;;;4148649;28;20207;-91
2023/05/27 01:55:55;;;;;;;19.43;5.23;;;10.70;99.90;;;;;;4181208;28;20703;-86
2023/05/27 01:57:56;;;;;;;24.73;5.27;;;10.70;99.90;;;;;;4148464;28;20157;-86
2023/05/27 01:59:57;;;;;;;32.47;6.07;;;10.60;99.90;;;;;;4164753;28;20595;-86
2023/05/27 02:01:58;;;;;;;26.70;5.03;;;10.60;99.90;;;;;;4164500;28;20167;-87
2023/05/27 02:03:59;;;;;;;26.00;4.50;;;10.60;99.90;;;;;;4164611;28;20180;-86
2023/05/27 02:05:59;;;;;;;26.17;4.73;;;10.50;99.90;;;;;;4148328;28;20412;-86
2023/05/27 02:08:01;;;;;;;26.50;5.03;;;10.50;99.90;;;;;;4164731;28;20206;-87
2023/05/27 02:10:02;;;;;;;23.60;5.17;;;10.50;99.90;;;;;;4164697;28;20617;-87
2023/05/27 02:12:03;;;;;;;26.57;5.00;;;10.50;99.90;;;;;;4164791;28;20251;-87
2023/05/27 02:14:07;;;;;;;26.27;4.73;;;10.60;99.90;;;;;;4164322;28;20602;-86
2023/05/27 02:16:07;;;;;;;26.33;5.10;;;10.60;99.90;;;;;;4164479;28;20200;-86
2023/05/27 02:18:08;;;;;;;26.07;5.40;;;10.60;99.90;;;;;;4164510;28;20738;-92
2023/05/27 02:20:10;;;;;;;26.43;5.67;;;10.60;99.90;;;;;;4148268;28;20207;-87
2023/05/27 02:22:11;;;;;;;29.40;5.33;;;10.50;99.90;;;;;;4148012;28;20263;-87
2023/05/27 02:24:12;;;;;;;20.23;4.77;;;10.60;99.90;;;;;;4164445;28;20173;-89
2023/05/27 02:26:13;;;;;;;36.90;4.93;;;10.60;99.90;;;;;;4148196;28;20192;-90
2023/05/27 02:28:13;;;;;;;31.17;6.00;;;10.60;99.90;;;;;;4148092;28;20168;-92
2023/05/27 02:30:15;;;;;;;32.40;6.13;;;10.50;99.90;;;;;;4180805;28;20168;-92
2023/05/27 02:32:16;;;;;;;30.83;5.70;;;10.50;99.90;;;;;;4148278;28;20176;-91
2023/05/27 02:34:18;;;;;;;31.80;4.97;;;10.40;99.90;;;;;;4164525;28;20200;-87
2023/05/27 02:36:20;;;;;;;26.93;5.83;;;10.30;99.90;;;;;;4165628;28;20250;-86
2023/05/27 02:38:22;;;;;;;31.43;5.97;;;10.30;99.90;;;;;;4151358;28;20177;-87
2023/05/27 02:40:27;;;;;;;23.50;5.67;;;10.20;99.90;;;;;;4167614;28;20184;-86
2023/05/27 02:42:29;;;;;;;29.67;5.50;;;10.10;99.90;;;;;;4167942;28;20168;-92
2023/05/27 02:44:30;;;;;;;27.60;5.40;;;10.10;99.90;;;;;;4151521;28;20276;-87
2023/05/27 02:46:31;;;;;;;27.33;6.00;;;10.00;99.90;;;;;;4184001;28;20191;-87
2023/05/27 02:48:32;;;;;;;28.23;5.17;;;10.10;99.90;;;;;;4151319;28;20269;-86
2023/05/27 02:50:33;;;;;;;34.80;6.07;;;10.00;99.90;;;;;;4167592;28;20226;-87
2023/05/27 02:52:34;;;;;;;18.90;4.93;;;10.00;99.90;;;;;;4167359;28;20176;-87
2023/05/27 02:54:35;;;;;;;21.07;5.57;;;10.00;99.90;;;;;;4151102;28;20796;-91
2023/05/27 02:56:35;;;;;;;29.73;5.73;;;10.00;99.90;;;;;;4151030;28;20256;-92
2023/05/27 02:58:36;;;;;;;24.70;5.60;;;10.00;99.90;;;;;;4167214;28;20169;-89
2023/05/27 03:00:37;;;;;;;25.50;5.23;;;10.00;99.90;;;;;;4151074;28;20550;-92
2023/05/27 03:02:37;;;;;;;35.47;5.57;;;9.90;99.90;;;;;;4151081;28;20172;-86
2023/05/27 03:04:39;;;;;;;27.47;5.20;;;9.90;99.90;;;;;;4167380;28;20195;-87
2023/05/27 03:06:40;;;;;;;21.47;5.13;;;9.90;99.90;;;;;;4150690;28;20189;-87
2023/05/27 03:08:41;;;;;;;31.43;5.27;;;9.80;99.90;;;;;;4167458;28;20188;-86
2023/05/27 03:10:41;;;;;;;23.07;5.43;;;9.80;99.90;;;;;;4167269;28;20171;-86
2023/05/27 03:12:42;;;;;;;28.67;5.30;;;9.90;99.90;;;;;;4167062;28;20643;-87
2023/05/27 03:14:43;;;;;;;26.33;5.17;;;9.80;99.90;;;;;;4167346;28;20215;-87
2023/05/27 03:16:43;;;;;;;20.57;5.20;;;9.90;99.90;;;;;;4166996;28;20196;-86
2023/05/27 03:18:44;;;;;;;26.37;5.80;;;9.90;99.90;;;;;;4166831;28;20188;-87
2023/05/27 03:20:45;;;;;;;28.37;6.00;;;9.80;99.90;;;;;;4183725;28;20624;-90
2023/05/27 03:22:46;;;;;;;30.23;5.37;;;9.80;99.90;;;;;;4150581;28;20173;-86
2023/05/27 03:24:47;;;;;;;26.13;5.87;;;9.70;99.90;;;;;;4167096;28;20176;-87
2023/05/27 03:26:48;;;;;;;24.60;5.50;;;9.70;99.90;;;;;;4150669;28;20263;-87
2023/05/27 03:28:49;;;;;;;26.77;5.50;;;9.60;99.90;;;;;;4183738;28;20225;-91
2023/05/27 03:30:50;;;;;;;27.13;5.83;;;9.60;99.90;;;;;;4167036;28;20184;-86
2023/05/27 03:33:08;;;;;;;29.33;5.73;;;9.60;99.90;;;;;;4167053;28;20195;-92
2023/05/27 03:35:11;;;;;;;37.47;8.57;;;9.50;99.90;;;;;;4166597;28;20212;-91
2023/05/27 03:37:13;;;;;;;22.60;5.87;;;9.50;99.90;;;;;;4166610;28;20164;-86
2023/05/27 03:39:28;;;;;;;24.03;5.43;;;9.50;99.90;;;;;;4152338;28;20610;-92
2023/05/27 03:41:32;;;;;;;24.97;6.00;;;9.40;99.90;;;;;;4166681;28;20263;-91
2023/05/27 03:43:32;;;;;;;33.80;6.60;;;9.40;99.90;;;;;;4183120;28;20171;-92
2023/05/27 03:45:33;;;;;;;34.80;6.60;;;9.30;99.90;;;;;;4183168;28;20541;-92
2023/05/27 03:47:35;;;;;;;28.90;6.73;;;9.30;99.90;;;;;;4149961;28;20324;-86
2023/05/27 03:49:36;;;;;;;34.33;6.07;;;9.30;99.90;;;;;;4166637;28;20561;-92
2023/05/27 03:51:37;;;;;;;30.57;6.00;;;9.30;99.90;;;;;;4166707;28;20159;-86
2023/05/27 03:53:38;;;;;;;23.83;6.13;;;9.30;99.90;;;;;;4166611;28;20202;-86
2023/05/27 03:55:38;;;;;;;27.50;6.07;;;9.20;99.90;;;;;;4149941;28;20267;-86
2023/05/27 03:57:41;;;;;;;27.17;6.37;;;9.20;99.90;;;;;;4150233;28;20172;-87
2023/05/27 03:59:42;;;;;;;21.60;5.90;;;9.20;99.90;;;;;;4166406;28;20234;-86
2023/05/27 04:01:44;;;;;;;32.27;5.80;;;9.20;99.90;;;;;;4149992;28;20653;-85
2023/05/27 04:03:44;;;;;;;26.70;6.10;;;9.20;99.90;;;;;;4166528;28;20175;-86
2023/05/27 04:05:47;;;;;;;26.50;6.57;;;9.20;99.90;;;;;;4166265;28;20200;-86
2023/05/27 04:07:48;;;;;;;28.27;6.33;;;9.20;99.90;;;;;;4166263;28;20176;-88
2023/05/27 04:09:48;;;;;;;26.97;6.07;;;9.20;99.90;;;;;;4150018;28;20180;-86
2023/05/27 04:11:49;;;;;;;25.83;6.57;;;9.10;99.90;;;;;;4166128;28;20164;-86
2023/05/27 04:13:49;;;;;;;27.97;6.37;;;9.10;99.90;;;;;;4166001;28;20180;-86
2023/05/27 04:15:50;;;;;;;36.70;6.20;;;9.10;99.90;;;;;;4149606;28;20613;-86
2023/05/27 04:17:51;;;;;;;31.57;6.50;;;9.10;99.90;;;;;;4165956;28;20188;-86
2023/05/27 04:19:52;;;;;;;22.03;6.97;;;9.10;99.90;;;;;;4149786;28;20323;-86
2023/05/27 04:21:53;;;;;;;24.73;6.07;;;9.10;99.90;;;;;;4166295;28;20169;-86
2023/05/27 04:23:54;;;;;;;30.70;6.77;;;9.10;99.90;;;;;;4166140;28;20168;-86
2023/05/27 04:25:55;;;;;;;29.87;5.97;;;9.20;99.90;;;;;;4166025;28;20280;-86
2023/05/27 04:27:58;;;;;;;23.50;5.77;;;9.20;99.90;;;;;;4149997;28;20173;-92
2023/05/27 04:30:01;;;;;;;25.07;6.30;;;9.30;99.90;;;;;;4166368;28;20259;-86
2023/05/27 04:32:02;;;;;;;31.43;6.37;;;9.30;99.90;;;;;;4166066;28;20167;-87
2023/05/27 04:34:03;;;;;;;27.37;6.60;;;9.30;99.90;;;;;;4166135;28;20168;-86
2023/05/27 04:36:05;;;;;;;25.23;6.30;;;9.30;99.90;;;;;;4149510;28;20232;-86
2023/05/27 04:38:20;;;;;;;29.10;6.90;;;9.40;99.90;;;;;;4167095;28;20168;-92
2023/05/27 04:40:31;;;;;;;29.87;6.63;;;9.40;99.90;;;;;;4167223;28;20172;-89
2023/05/27 04:43:05;;;;;;;21.70;5.63;;;9.40;99.90;;;;;;4156266;28;20637;-92
2023/05/27 04:45:08;;;;;;;30.33;6.57;;;9.40;99.90;;;;;;4148993;28;20180;-86
2023/05/27 04:47:09;;;;;;;24.63;6.67;;;9.50;99.90;;;;;;4149595;28;20371;-86
2023/05/27 04:49:10;;;;;;;24.97;6.23;;;9.50;99.90;;;;;;4165916;28;20206;-91
2023/05/27 04:51:15;;;;;;;31.67;6.83;;;9.40;99.90;;;;;;4149344;28;20200;-87
2023/05/27 04:53:16;;;;;;;33.23;6.50;;;9.50;99.90;;;;;;4165560;28;20557;-92
2023/05/27 04:55:16;;;;;;;29.83;7.10;;;9.50;99.90;;;;;;4148977;28;20213;-91
2023/05/27 04:57:18;;;;;;;25.10;6.87;;;9.60;99.90;;;;;;4165759;28;20664;-89
2023/05/27 04:59:21;;;;;;;27.37;7.13;;;9.60;99.90;;;;;;4148361;28;20173;-92
2023/05/27 05:01:24;;;;;;;24.87;6.53;;;9.60;99.90;;;;;;4182120;28;20203;-85
2023/05/27 05:03:50;;;;;;;23.80;7.33;;;9.70;99.90;;;;;;4151461;28;20183;-86
2023/05/27 05:05:53;;;;;;;27.87;7.00;;;9.70;99.90;;;;;;4165517;28;20203;-87
2023/05/27 05:07:55;;;;;;;29.30;6.57;;;9.70;99.90;;;;;;4165250;28;20169;-87
2023/05/27 05:09:57;;;;;;;27.30;6.97;;;9.90;99.90;;;;;;4165469;28;20218;-86
2023/05/27 05:12:06;;;;;;;22.20;6.30;;;9.90;99.90;;;;;;4165209;28;20168;-94
2023/05/27 05:14:11;;;;;;;23.50;6.67;;;9.90;99.90;;;;;;4149423;28;20173;-86
2023/05/27 05:16:15;;;;;;;26.23;6.93;;;9.90;99.90;;;;;;4181642;28;20282;-87
2023/05/27 05:18:23;;;;;;;28.53;6.77;;;9.90;99.90;;;;;;4166039;28;20184;-86
2023/05/27 05:20:23;;;;;;;24.57;6.50;;;10.00;99.90;;;;;;4165224;28;20607;-87
2023/05/27 05:22:25;;;;;;;20.07;6.40;;;10.10;99.90;;;;;;4166245;28;20214;-87
2023/05/27 05:24:27;;;;;;;23.30;6.57;;;10.20;99.90;;;;;;4148965;28;20519;-93
2023/05/27 05:26:28;;;;;;;26.00;6.80;;;10.20;99.90;;;;;;4148735;28;20243;-93
2023/05/27 05:28:29;;;;;;;27.67;6.37;;;10.20;99.90;;;;;;4148527;28;20562;-93
2023/05/27 05:30:31;;;;;;;28.17;6.73;;;10.30;99.90;;;;;;4165173;28;20186;-87
2023/05/27 05:32:32;;;;;;;28.73;6.33;;;10.30;99.90;;;;;;4148810;28;20239;-87
2023/05/27 05:34:33;;;;;;;36.47;7.77;;;10.50;99.90;;;;;;4181568;28;20253;-86
2023/05/27 05:36:35;;;;;;;28.83;7.10;;;10.60;99.90;;;;;;4148403;28;20201;-87
2023/05/27 05:38:40;;;;;;;24.57;6.43;;;10.60;99.90;;;;;;4181451;28;20171;-93
2023/05/27 05:40:41;;;;;;;23.60;6.87;;;10.70;99.90;;;;;;4148610;28;20199;-88
2023/05/27 05:42:49;;;;;;;27.57;6.47;;;10.80;99.90;;;;;;4181478;28;20178;-87
2023/05/27 05:44:53;;;;;;;24.60;6.90;;;10.90;99.90;;;;;;4148660;28;20173;-94
2023/05/27 05:46:54;;;;;;;29.77;6.20;;;11.00;99.90;;;;;;4164846;28;20207;-86
2023/05/27 05:48:57;;;;;;;31.77;7.63;;;11.00;99.90;;;;;;4164723;28;20180;-92
2023/05/27 05:51:12;;;;;;;22.03;7.20;;;11.10;99.90;;;;;;4166538;28;20238;-89
2023/05/27 05:53:14;;;;;;;27.40;6.83;;;11.10;99.90;;;;;;4164653;28;20668;-86
2023/05/27 05:55:15;;;;;;;26.00;6.70;;;11.10;99.90;;;;;;4164602;28;20248;-92
2023/05/27 05:57:16;;;;;;;32.30;7.53;;;11.00;99.90;;;;;;4181398;28;20547;-93
2023/05/27 05:59:17;;;;;;;35.10;7.73;;;11.00;99.90;;;;;;4148465;28;20172;-94
2023/05/27 06:01:18;;;;;;;35.67;7.30;;;11.10;99.90;;;;;;4164469;28;20171;-86
2023/05/27 06:03:19;;;;;;;35.93;6.63;;;11.20;99.90;;;;;;4164702;28;20594;-86
2023/05/27 06:05:25;;;;;;;22.73;6.07;;;11.20;99.90;;;;;;4164906;28;20260;-86
2023/05/27 06:07:26;;;;;;;29.90;6.97;;;11.30;99.90;;;;;;4164720;28;20186;-93
2023/05/27 06:09:34;;;;;;;22.23;6.33;;;11.40;99.90;;;;;;4164337;28;20187;-87
2023/05/27 06:11:39;;;;;;;20.60;6.10;;;11.50;99.90;;;;;;4164876;28;20804;-86
2023/05/27 06:13:41;;;;;;;26.30;6.93;;;11.70;99.90;;;;;;4164527;28;20632;-86
2023/05/27 06:15:43;;;;;;;23.67;6.57;;;11.80;99.90;;;;;;4164764;28;20216;-86
2023/05/27 06:17:47;;;;;;;24.33;7.13;;;11.80;99.90;;;;;;4181157;28;20571;-87
2023/05/27 06:19:48;;;;;;;20.03;6.33;;;11.80;99.90;;;;;;4164752;28;20168;-86
2023/05/27 06:21:49;;;;;;;30.43;6.90;;;11.90;99.90;;;;;;4164544;28;20172;-86
2023/05/27 06:24:25;;;;;;;23.33;6.40;;;12.10;99.90;;;;;;4151749;28;20529;-86
2023/05/27 06:26:39;;;;;;;22.67;6.77;;;12.00;99.90;;;;;;4164412;28;20249;-91
2023/05/27 06:28:40;;;;;;;24.57;6.37;;;11.90;99.90;;;;;;4165408;28;20652;-92
2023/05/27 06:30:42;;;;;;;27.38;6.95;;;11.90;99.90;;;;;;4164408;28;20176;-88
2023/05/27 06:32:45;;;;;;;28.23;7.13;;;11.80;99.90;;;;;;4180928;28;20225;-87
2023/05/27 06:34:46;;;;;;;21.80;6.15;;;12.00;99.90;;;;;;4164167;28;20303;-88
2023/05/27 06:36:48;;;;;;;25.63;6.90;;;12.30;99.90;;;;;;4164347;28;20195;-86
2023/05/27 06:38:49;;;;;;;31.83;6.72;;;12.40;99.90;;;;;;4181060;28;20635;-86
2023/05/27 06:40:51;;;;;;;22.45;6.93;;;12.50;99.90;;;;;;4147936;28;20172;-86
2023/05/27 06:42:53;;;;;;;22.40;6.82;;;12.50;99.90;;;;;;4180755;28;20226;-86
2023/05/27 06:45:04;;;;;;;28.90;6.68;;;12.40;99.90;;;;;;4164173;28;20664;-86
2023/05/27 06:47:07;;;;;;;21.52;6.70;;;12.40;99.90;;;;;;4148046;28;20181;-86
2023/05/27 06:49:08;;;;;;;28.70;6.93;;;12.40;99.90;;;;;;4164058;28;20169;-93
2023/05/27 06:51:09;;;;;;;24.97;6.77;;;12.50;99.90;;;;;;4180873;28;20265;-93
2023/05/27 06:53:13;;;;;;;23.33;6.97;;;12.60;99.90;;;;;;4164520;28;20203;-94
2023/05/27 06:55:30;;;;;;;31.20;6.88;;;12.70;99.90;;;;;;4163916;28;20258;-87
2023/05/27 06:58:06;;;;;;;26.35;7.03;;;12.90;99.90;;;;;;4138082;28;20172;-87
2023/05/27 07:00:33;;;;;;;21.75;6.75;;;13.10;99.90;;;;;;4175490;28;20187;-95
2023/05/27 07:02:54;;;;;;;21.75;6.53;;;13.20;99.90;;;;;;4157969;28;20217;-87
2023/05/27 07:04:55;;;;;;;24.83;7.05;;;13.50;99.90;;;;;;4147793;28;20640;-92
2023/05/27 07:06:55;;;;;;;24.08;6.63;;;13.80;99.90;;;;;;4180336;28;20160;-88
2023/05/27 07:08:56;;;;;;;27.85;6.55;;;13.90;99.90;;;;;;4163912;28;20668;-86
2023/05/27 07:11:01;;;;;;;27.67;6.43;;;14.00;99.90;;;;;;4180163;28;20517;-86
2023/05/27 07:13:02;;;;;;;25.33;6.25;;;14.10;99.90;;;;;;4164078;28;20170;-88
2023/05/27 07:15:13;;;;;;;24.63;6.43;;;14.70;99.90;;;;;;4164018;28;20297;-86
2023/05/27 07:17:14;;;;;;;20.70;5.82;;;15.10;99.90;;;;;;4164001;28;20595;-87
2023/05/27 07:19:15;;;;;;;21.73;6.03;;;15.30;99.90;;;;;;4164054;28;20176;-87
2023/05/27 07:21:22;;;;;;;23.48;6.32;;;15.60;99.90;;;;;;4163672;28;20222;-87
2023/05/27 07:23:23;;;;;;;24.63;6.15;;;16.30;99.90;;;;;;4166821;28;20200;-88
2023/05/27 07:25:33;;;;;;;24.95;7.18;;;16.90;99.90;;;;;;4167097;28;20200;-94
2023/05/27 07:27:33;;;;;;;19.00;6.18;;;17.20;99.90;;;;;;4166632;28;20207;-93
2023/05/27 07:29:34;;;;;;;28.75;6.90;;;17.00;99.90;;;;;;4183504;28;20175;-86
2023/05/27 07:32:13;;;;;;;23.10;6.00;;;16.90;99.90;;;;;;4151846;28;20175;-92
2023/05/27 07:34:15;;;;;;;23.05;6.70;;;16.80;99.90;;;;;;4166672;28;20180;-94
2023/05/27 07:36:15;;;;;;;26.50;6.15;;;16.60;99.90;;;;;;4183481;28;20301;-87
2023/05/27 07:38:16;;;;;;;23.25;5.63;;;16.60;99.90;;;;;;4168003;28;20172;-93
2023/05/27 07:40:17;;;;;;;27.20;5.85;;;16.70;99.90;;;;;;4166572;28;20652;-85
2023/05/27 07:42:17;;;;;;;20.80;6.18;;;16.70;99.90;;;;;;4166482;28;20628;-86
2023/05/27 07:44:19;;;;;;;19.02;5.60;;;16.90;99.90;;;;;;4150405;28;20173;-93
2023/05/27 07:46:19;;;;;;;19.42;5.50;;;17.10;99.90;;;;;;4150557;28;20189;-96
2023/05/27 07:48:21;;;;;;;22.45;5.72;;;17.20;99.90;;;;;;4183290;28;20171;-89
2023/05/27 07:50:21;;;;;;;19.00;5.60;;;17.20;99.90;;;;;;4166754;28;20318;-87
2023/05/27 07:52:42;;;;;;;18.95;5.80;;;17.10;99.90;;;;;;4169237;28;20187;-87
2023/05/27 07:54:56;;;;;;;30.42;6.10;;;17.50;99.90;;;;;;4151544;28;20204;-87
2023/05/27 07:56:59;;;;;;;27.58;5.88;;;17.90;99.90;;;;;;4166712;28;20264;-87
2023/05/27 07:59:00;;;;;;;20.55;5.38;;;18.30;99.90;;;;;;4166957;28;20656;-87
2023/05/27 08:01:03;;;;;;;20.20;5.50;;;19.00;99.90;;;;;;4167048;28;20172;-95
2023/05/27 08:03:05;;;;;;;26.20;5.45;;;19.50;99.90;;;;;;4150317;28;20172;-96
2023/05/27 08:05:26;;;;;;;24.02;5.30;;;19.60;99.90;;;;;;4170171;28;20691;-88
2023/05/27 08:08:04;;;;;;;23.73;6.10;;;20.00;99.90;;;;;;4101470;29;20179;-86
2023/05/27 08:10:25;;;;;;;20.20;5.43;;;20.10;99.90;;;;;;4087812;29;20555;-94
2023/05/27 08:12:41;;;;;;;21.65;5.95;;;20.30;99.90;;;;;;4102050;28;20181;-87
2023/05/27 08:14:49;;;;;;;22.40;5.45;;;20.30;99.90;;;;;;4166749;28;20691;-93
2023/05/27 08:17:14;;;;;;;24.88;5.88;;;20.30;99.90;;;;;;4166802;28;20248;-89
2023/05/27 08:19:29;;;;;;;21.38;5.40;;;20.90;99.90;;;;;;4167309;28;20271;-95
2023/05/27 08:21:39;;;;;;;20.40;5.68;;;20.90;99.90;;;;;;4167931;28;20199;-88
2023/05/27 08:24:05;;;;;;;19.55;5.40;;;21.20;99.90;;;;;;4166524;28;20179;-95
2023/05/27 08:26:05;;;;;;;17.55;5.63;;;21.60;99.90;;;;;;4183505;28;20195;-91
2023/05/27 08:28:11;;;;;;;17.73;5.35;;;21.30;99.90;;;;;;4167478;28;20179;-88
2023/05/27 08:30:32;;;;;;;20.02;6.13;;;21.20;99.90;;;;;;4179672;28;20179;-88
2023/05/27 08:32:59;;;;;;;22.25;5.60;;;20.70;99.90;;;;;;4175295;28;20189;-87
2023/05/27 08:35:00;;;;;;;23.92;5.75;;;20.30;99.90;;;;;;4149827;28;20200;-88
2023/05/27 08:37:02;;;;;;;22.88;5.85;;;19.70;99.90;;;;;;4182810;28;20180;-87
2023/05/27 08:39:06;;;;;;;14.90;5.60;;;19.60;99.90;;;;;;4150505;28;20175;-88
2023/05/27 08:41:15;;;;;;;29.38;5.20;;;19.70;99.90;;;;;;4183016;28;20254;-87
2023/05/27 08:43:16;;;;;;;20.75;5.32;;;20.10;99.90;;;;;;4166178;28;20168;-94
2023/05/27 08:45:19;;;;;;;21.73;5.63;;;20.10;99.90;;;;;;4182797;28;20196;-93
2023/05/27 08:47:19;;;;;;;21.95;5.15;;;20.20;99.90;;;;;;4166482;28;20288;-93
2023/05/27 08:49:21;;;;;;;21.25;5.70;;;20.30;99.90;;;;;;4166916;28;20231;-90
2023/05/27 08:51:22;;;;;;;18.52;5.47;;;20.30;99.90;;;;;;4150903;28;20169;-90
2023/05/27 08:53:23;;;;;;;20.63;6.07;;;20.50;99.90;;;;;;4166682;28;20184;-89
2023/05/27 08:55:26;;;;;;;20.55;5.65;;;20.90;99.90;;;;;;4166570;28;20219;-88
2023/05/27 08:57:29;;;;;;;22.80;5.80;;;20.70;99.90;;;;;;4150332;28;20720;-91
2023/05/27 08:59:31;;;;;;;20.17;5.53;;;20.20;99.90;;;;;;4149947;28;20176;-91
2023/05/27 09:01:32;;;;;;;19.73;5.68;;;20.00;99.90;;;;;;4165573;28;20247;-89
2023/05/27 09:03:34;;;;;;;19.77;5.75;;;20.30;99.90;;;;;;4149929;28;20165;-93
2023/05/27 09:05:35;;;;;;;16.13;5.88;;;20.60;99.90;;;;;;4166751;28;20191;-93
2023/05/27 09:07:37;;;;;;;27.15;6.35;;;20.90;99.90;;;;;;4165839;28;20171;-95
2023/05/27 09:09:39;;;;;;;17.85;5.53;;;21.20;99.90;;;;;;4166032;28;20180;-88
2023/05/27 09:11:42;;;;;;;18.88;5.63;;;21.60;99.90;;;;;;4166059;28;20164;-91
2023/05/27 09:13:43;;;;;;;24.27;5.78;;;21.30;99.90;;;;;;4150027;28;20180;-94
2023/05/27 09:15:44;;;;;;;27.73;5.70;;;21.00;99.90;;;;;;4165728;28;20254;-89
2023/05/27 09:17:46;;;;;;;24.40;5.75;;;21.00;99.90;;;;;;4165848;28;20184;-89
2023/05/27 09:19:47;;;;;;;18.83;5.47;;;21.20;99.90;;;;;;4166670;28;20179;-90
2023/05/27 09:21:52;;;;;;;33.22;6.18;;;21.10;99.90;;;;;;4150954;28;20649;-88
2023/05/27 09:23:59;;;;;;;18.17;5.20;;;21.00;99.90;;;;;;4149792;28;20262;-87
2023/05/27 09:26:01;;;;;;;23.63;5.47;;;21.30;99.90;;;;;;4166662;28;20223;-89
2023/05/27 09:28:05;;;;;;;17.92;5.72;;;21.60;99.90;;;;;;4167750;28;20165;-87
2023/05/27 09:30:09;;;;;;;21.10;6.47;;;21.60;99.90;;;;;;4165721;28;20267;-91
2023/05/27 09:32:10;;;;;;;18.05;6.13;;;22.00;99.90;;;;;;4168183;28;20167;-93
2023/05/27 09:34:13;;;;;;;20.15;5.50;;;21.80;99.90;;;;;;4182263;28;20175;-88
2023/05/27 09:36:21;;;;;;;23.65;5.53;;;21.70;99.90;;;;;;4166273;28;20200;-94
2023/05/27 09:38:22;;;;;;;22.50;5.80;;;21.60;99.90;;;;;;4167674;28;20264;-90
2023/05/27 09:40:25;;;;;;;18.67;5.47;;;21.50;99.90;;;;;;4183896;28;20179;-88
2023/05/27 09:42:26;;;;;;;18.33;5.05;;;21.50;99.90;;;;;;4151733;28;20177;-89
2023/05/27 09:44:36;;;;;;;23.05;5.70;;;21.60;99.90;;;;;;4184055;28;20171;-89
2023/05/27 09:46:39;;;;;;;19.58;5.05;;;21.70;99.90;;;;;;4156329;28;20696;-92
2023/05/27 09:48:40;;;;;;;20.15;5.30;;;22.30;99.90;;;;;;4155569;28;20176;-95
2023/05/27 09:50:41;;;;;;;17.45;5.57;;;22.70;99.90;;;;;;4168591;28;20176;-90
2023/05/27 09:52:47;;;;;;;18.45;6.00;;;23.00;99.90;;;;;;4170617;28;20168;-95
2023/05/27 09:54:48;;;;;;;23.23;5.47;;;22.60;99.90;;;;;;4150464;28;20306;-88
2023/05/27 09:56:50;;;;;;;21.83;5.88;;;22.20;99.90;;;;;;4165990;28;20203;-94
2023/05/27 09:58:55;;;;;;;27.10;6.63;;;22.10;99.90;;;;;;4165370;28;20644;-87
2023/05/27 10:00:57;;;;;;;23.33;5.85;;;21.80;99.90;;;;;;4166919;28;20164;-87
2023/05/27 10:03:00;;;;;;;23.73;6.10;;;21.70;99.90;;;;;;4132386;28;20178;-96
2023/05/27 10:05:03;;;;;;;21.10;5.40;;;22.00;99.90;;;;;;4166538;28;20178;-88
2023/05/27 10:07:04;;;;;;;22.55;5.50;;;22.10;99.90;;;;;;4165697;28;20270;-87
2023/05/27 10:09:04;;;;;;;23.33;5.50;;;22.40;99.90;;;;;;4183779;28;20171;-88
2023/05/27 10:11:05;;;;;;;25.58;6.15;;;22.30;99.90;;;;;;4166311;28;20851;-93
2023/05/27 10:13:07;;;;;;;22.95;5.03;;;22.40;99.90;;;;;;4166319;28;20168;-87
2023/05/27 10:15:09;;;;;;;19.80;5.22;;;22.70;99.90;;;;;;4151933;28;20247;-96
2023/05/27 10:17:10;;;;;;;21.17;5.53;;;22.50;99.90;;;;;;4166917;28;20177;-88
2023/05/27 10:19:11;;;;;;;20.02;5.30;;;23.10;99.90;;;;;;4166044;28;20190;-86
2023/05/27 10:21:22;;;;;;;23.42;5.93;;;23.40;99.90;;;;;;4148677;28;20176;-87
2023/05/27 10:23:31;;;;;;;22.65;5.63;;;22.70;99.90;;;;;;4165859;28;20262;-95
2023/05/27 10:26:01;;;;;;;23.13;6.18;;;22.20;99.90;;;;;;4164679;28;20663;-90
2023/05/27 10:28:02;;;;;;;25.33;5.85;;;21.50;99.90;;;;;;4180929;28;20605;-87
2023/05/27 10:30:03;;;;;;;21.13;5.68;;;21.10;99.90;;;;;;4164393;28;20251;-86
2023/05/27 10:32:04;;;;;;;22.75;5.80;;;20.60;99.90;;;;;;4164552;28;20226;-87
2023/05/27 10:34:06;;;;;;;22.80;5.68;;;20.30;99.90;;;;;;4148118;28;20169;-86
2023/05/27 10:36:09;;;;;;;18.40;5.10;;;20.20;99.90;;;;;;4164383;28;20231;-86
2023/05/27 10:38:17;;;;;;;18.02;5.20;;;20.10;99.90;;;;;;4148182;28;20256;-87